Friday, October 19, 2018, 3:53 AM EDT
Back to Local

KRMN, Stafford, Stafford Regional Airport

Location: Fredericksburg, VA, United States Lat: 38.398
Local Time: 3:53 AM EDT ( 7:53 GMT) Lon: -77.455
Time Zone: US/Eastern Elev: 213 ft

Show me the last for .
Show Decoded

2018-10-19 03:35 METAR KRMN 190735Z AUTO 00000KT 10SM CLR 02/02 A3042 RMK AO2 T00180018 =
2018-10-19 03:15 METAR KRMN 190715Z AUTO 00000KT 10SM CLR 02/02 A3042 RMK AO2 T00150015 =
2018-10-19 02:55 METAR KRMN 190655Z AUTO 00000KT 10SM CLR 02/02 A3043 RMK AO2 T00160016 =
2018-10-19 02:35 METAR KRMN 190635Z AUTO 00000KT 10SM CLR 02/02 A3043 RMK AO2 T00160016 =
2018-10-19 02:15 METAR KRMN 190615Z AUTO 00000KT 10SM CLR 02/02 A3043 RMK AO2 T00190019 =
2018-10-19 01:55 METAR KRMN 190555Z AUTO 00000KT 10SM CLR 03/03 A3043 RMK AO2 T00310031 10058
                 20018 401470018 =
2018-10-19 01:35 METAR KRMN 190535Z AUTO 00000KT 10SM CLR 02/02 A3043 RMK AO2 T00210021 =
2018-10-19 01:15 METAR KRMN 190515Z AUTO 00000KT 10SM CLR 02/02 A3043 RMK AO2 T00210021 =
2018-10-19 00:55 METAR KRMN 190455Z AUTO 00000KT 10SM CLR 03/03 A3043 RMK AO2 T00280028 =
2018-10-19 00:35 METAR KRMN 190435Z AUTO 00000KT 10SM CLR 03/03 A3043 RMK AO2 T00260026 =
2018-10-19 00:15 METAR KRMN 190415Z AUTO 00000KT 10SM CLR 03/03 A3044 RMK AO2 T00260026 =
2018-10-18 23:55 METAR KRMN 190355Z AUTO 00000KT 10SM CLR 03/03 A3044 RMK AO2 T00290029 =
2018-10-18 23:35 METAR KRMN 190335Z AUTO 00000KT 10SM CLR 03/03 A3045 RMK AO2 T00330033 =
2018-10-18 23:15 METAR KRMN 190315Z AUTO 00000KT 10SM CLR 03/03 A3045 RMK AO2 T00320032 =
2018-10-18 22:55 METAR KRMN 190255Z AUTO 00000KT 10SM CLR 04/04 A3045 RMK AO2 T00350035 =
2018-10-18 22:35 METAR KRMN 190235Z AUTO 00000KT 10SM CLR 04/04 A3046 RMK AO2 T00360036 =
2018-10-18 22:15 METAR KRMN 190215Z AUTO 00000KT 10SM CLR 04/04 A3046 RMK AO2 T00380038 =
2018-10-18 21:55 METAR KRMN 190155Z AUTO 00000KT 10SM CLR 04/04 A3046 RMK AO2 T00390039 =
2018-10-18 21:35 METAR KRMN 190135Z AUTO 00000KT 10SM CLR 04/04 A3045 RMK AO2 T00410041 =
2018-10-18 21:15 METAR KRMN 190115Z AUTO 00000KT 10SM CLR 04/04 A3046 RMK AO2 T00440044 =
2018-10-18 20:55 METAR KRMN 190055Z AUTO 00000KT 10SM CLR 05/05 A3045 RMK AO2 T00460046 =
2018-10-18 20:35 METAR KRMN 190035Z AUTO 00000KT 10SM CLR 05/05 A3045 RMK AO2 T00510051 =
2018-10-18 20:15 METAR KRMN 190015Z AUTO 00000KT 10SM CLR 06/06 A3045 RMK AO2 T00550055 =
2018-10-18 19:55 METAR KRMN 182355Z AUTO 00000KT 10SM CLR 06/06 A3045 RMK AO2 T00590059 10147
                 20059 =
2018-10-18 19:35 METAR KRMN 182335Z AUTO 00000KT 10SM CLR 06/06 A3045 RMK AO2 T00630063 =
2018-10-18 19:15 METAR KRMN 182315Z AUTO 00000KT 10SM CLR 07/07 A3044 RMK AO2 T00670067 =
2018-10-18 18:55 METAR KRMN 182255Z AUTO 00000KT 10SM CLR 08/08 A3044 RMK AO2 T00750075 =
2018-10-18 18:35 METAR KRMN 182235Z AUTO 00000KT 10SM CLR 09/08 A3044 RMK AO2 T00890075 =
2018-10-18 18:15 METAR KRMN 182215Z AUTO 00000KT 10SM CLR 10/07 A3043 RMK AO2 T01000069 =
2018-10-18 17:55 METAR KRMN 182155Z AUTO 00000KT 10SM CLR 13/05 A3043 RMK AO2 T01270048 =
2018-10-18 17:35 METAR KRMN 182135Z AUTO 00000KT 10SM CLR 14/01 A3043 RMK AO2 T01370010 =
2018-10-18 17:15 METAR KRMN 182115Z AUTO 00000KT 10SM CLR 14/02 A3043 RMK AO2 T01410023 =
2018-10-18 16:55 METAR KRMN 182055Z AUTO 31006KT 10SM CLR 14/01 A3043 RMK AO2 T01430013 =
2018-10-18 16:35 METAR KRMN 182035Z AUTO 30008KT 10SM CLR 15/01 A3043 RMK AO2 T01450012 =
2018-10-18 16:15 METAR KRMN 182015Z AUTO 31004KT 10SM CLR 15/01 A3043 RMK AO2 T01450007 =
2018-10-18 15:55 METAR KRMN 181955Z AUTO 35005KT 10SM CLR 15/01 A3043 RMK AO2 T01450011 =
2018-10-18 15:35 METAR KRMN 181935Z AUTO 28006KT 10SM CLR 14/01 A3043 RMK AO2 T01430012 =
2018-10-18 15:15 METAR KRMN 181915Z AUTO 31009KT 10SM CLR 15/01 A3044 RMK AO2 T01450013 =
2018-10-18 14:55 METAR KRMN 181855Z AUTO 33009KT 10SM CLR 15/02 A3044 RMK AO2 T01450016 =
2018-10-18 14:35 METAR KRMN 181835Z AUTO 35009KT 10SM CLR 14/01 A3044 RMK AO2 T01400007 =
2018-10-18 14:15 METAR KRMN 181815Z AUTO 28006KT 10SM CLR 14/01 A3045 RMK AO2 T01420006 =
2018-10-18 13:55 METAR KRMN 181755Z AUTO 28007KT 10SM CLR 14/00 A3046 RMK AO2 T01390001 10139
                 20051 =
2018-10-18 13:35 METAR KRMN 181735Z AUTO 31007G15KT 10SM CLR 14/01 A3047 RMK AO2 T01380006 =
2018-10-18 13:15 METAR KRMN 181715Z AUTO 29010G14KT 10SM CLR 13/00 A3048 RMK AO2 T01340002 =
2018-10-18 12:55 METAR KRMN 181655Z AUTO 29007KT 10SM CLR 13/00 A3049 RMK AO2 T01311001 =
2018-10-18 12:35 METAR KRMN 181635Z AUTO 25004KT 10SM CLR 13/00 A3049 RMK AO2 T01251005 =
2018-10-18 12:15 METAR KRMN 181615Z AUTO 31008G15KT 10SM CLR 13/00 A3050 RMK AO2 T01251004 =
2018-10-18 11:55 METAR KRMN 181555Z AUTO 33011G17KT 10SM CLR 13/00 A3050 RMK AO2 T01251001 =
2018-10-18 11:35 METAR KRMN 181535Z AUTO 30009KT 10SM CLR 12/00 A3051 RMK AO2 T01210000 =
2018-10-18 11:15 METAR KRMN 181515Z AUTO 29008G15KT 270V340 10SM CLR 12/00 A3050 RMK AO2
                 T01170001 =
2018-10-18 10:55 METAR KRMN 181455Z AUTO 30009G14KT 10SM CLR 12/00 A3051 RMK AO2 T01150002 =
2018-10-18 10:35 METAR KRMN 181435Z AUTO 36008KT 10SM CLR 12/01 A3050 RMK AO2 T01150006 =
2018-10-18 10:15 METAR KRMN 181415Z AUTO 32010G17KT 10SM CLR 11/00 A3050 RMK AO2 T01081001 =
2018-10-18 09:55 METAR KRMN 181355Z AUTO 34008KT 310V010 10SM CLR 11/00 A3050 RMK AO2 T01060001 =
2018-10-18 09:35 METAR KRMN 181335Z AUTO 33009KT 10SM CLR 11/02 A3051 RMK AO2 T01050020 =
2018-10-18 09:15 METAR KRMN 181315Z AUTO 33009G14KT 10SM CLR 10/03 A3050 RMK AO2 T00980031 =
2018-10-18 08:55 METAR KRMN 181255Z AUTO 34007KT 10SM SCT050 09/04 A3049 RMK AO2 T00930043 =
2018-10-18 08:35 METAR KRMN 181235Z AUTO 00000KT 10SM SCT050 07/07 A3048 RMK AO2 T00740073 =
2018-10-18 08:15 METAR KRMN 181215Z AUTO 00000KT 10SM BKN050 06/06 A3047 RMK AO2 T00600060 =
2018-10-18 07:55 METAR KRMN 181155Z AUTO 32004KT 10SM SCT050 05/05 A3046 RMK AO2 T00500050 10101
                 20041 =
2018-10-18 07:35 METAR KRMN 181135Z AUTO 00000KT 10SM BKN050 05/05 A3045 RMK AO2 T00510051 =
2018-10-18 07:15 METAR KRMN 181115Z AUTO 00000KT 10SM SCT055 04/04 A3044 RMK AO2 T00410041 =
2018-10-18 06:55 METAR KRMN 181055Z AUTO 00000KT 10SM SCT046 BKN055 05/05 A3043 RMK AO2 T00500050
                 =
2018-10-18 06:35 METAR KRMN 181035Z AUTO 00000KT 10SM SCT046 05/05 A3043 RMK AO2 T00530051 =
2018-10-18 06:15 METAR KRMN 181015Z AUTO 00000KT 10SM SCT050 06/04 A3042 RMK AO2 T00560043 =
2018-10-18 05:55 METAR KRMN 180955Z AUTO 34005KT 10SM SCT050 06/03 A3041 RMK AO2 T00620034 =
2018-10-18 05:35 METAR KRMN 180935Z AUTO 34007KT 10SM SCT050 06/05 A3040 RMK AO2 T00580047 =
2018-10-18 05:15 METAR KRMN 180915Z AUTO 34003KT 10SM CLR 05/05 A3039 RMK AO2 T00500050 =
2018-10-18 04:55 METAR KRMN 180855Z AUTO 33003KT 10SM CLR 06/05 A3038 RMK AO2 T00590048 =
2018-10-18 04:35 METAR KRMN 180835Z AUTO 01004KT 10SM CLR 09/03 A3038 RMK AO2 T00850032 =
2018-10-18 04:15 METAR KRMN 180815Z AUTO 02004KT 10SM CLR 08/04 A3038 RMK AO2 T00830040 =
2018-10-18 03:55 METAR KRMN 180755Z AUTO 07003KT 10SM CLR 09/04 A3037 RMK AO2 T00860037 =

Support USWX by starting your Amazon purchase here.